createdAt,value
2018-07-25T00:03:15.885Z,8.47
2018-07-25T00:08:20.006Z,8.47
2018-07-25T00:13:25.327Z,8.60
2018-07-25T00:18:29.410Z,8.70
2018-07-25T00:23:33.490Z,10.17
2018-07-25T00:28:37.570Z,7.87
2018-07-25T00:33:41.417Z,8.83
2018-07-25T00:38:45.490Z,8.60
2018-07-25T00:43:49.613Z,10.07
2018-07-25T00:48:53.737Z,8.27
2018-07-25T00:53:57.830Z,9.07
2018-07-25T00:59:01.918Z,8.03
2018-07-25T01:04:06.013Z,8.60
2018-07-25T01:09:11.011Z,8.70
2018-07-25T01:14:14.840Z,8.87
2018-07-25T01:19:18.915Z,9.27
2018-07-25T01:24:23.006Z,8.90
2018-07-25T01:29:26.834Z,9.27
2018-07-25T01:34:30.685Z,9.53
2018-07-25T01:39:34.510Z,9.23
2018-07-25T01:44:39.155Z,9.70
2018-07-25T01:49:43.294Z,9.70
2018-07-25T01:54:47.381Z,9.00
2018-07-25T01:59:51.452Z,10.20
2018-07-25T02:04:55.294Z,10.10
2018-07-25T02:09:59.373Z,10.53
2018-07-25T02:15:03.528Z,11.33
2018-07-25T02:20:07.590Z,10.97
2018-07-25T02:25:11.674Z,10.57
2018-07-25T02:30:15.759Z,11.00
2018-07-25T02:35:19.887Z,10.77
2018-07-25T02:40:23.964Z,11.33
2018-07-25T02:45:32.167Z,10.30
2018-07-25T02:50:36.403Z,10.60
2018-07-25T02:55:40.490Z,10.80
2018-07-25T03:00:44.616Z,10.73
2018-07-25T03:05:48.702Z,10.67
2018-07-25T03:10:52.847Z,11.03
2018-07-25T03:16:02.848Z,11.70
2018-07-25T03:21:06.924Z,11.67
2018-07-25T03:26:11.006Z,12.77
2018-07-25T03:31:15.151Z,12.10
2018-07-25T03:36:18.922Z,12.30
2018-07-25T03:41:23.020Z,11.97
2018-07-25T03:46:27.104Z,11.50
2018-07-25T03:51:31.038Z,11.70
2018-07-25T03:56:35.172Z,12.67
2018-07-25T04:01:39.241Z,12.40
2018-07-25T04:06:43.302Z,12.37
2018-07-25T04:11:47.402Z,12.70
2018-07-25T04:16:51.326Z,12.90
2018-07-25T04:21:55.411Z,12.63
2018-07-25T04:26:59.476Z,12.73
2018-07-25T04:32:03.604Z,12.93
2018-07-25T04:37:07.651Z,12.97
2018-07-25T04:42:11.738Z,12.70
2018-07-25T04:47:15.808Z,13.47
2018-07-25T04:52:20.109Z,12.73
2018-07-25T04:57:24.167Z,13.37
2018-07-25T05:02:27.994Z,12.73
2018-07-25T05:07:32.597Z,12.67
2018-07-25T05:12:36.792Z,13.37
2018-07-25T05:17:40.834Z,13.73
2018-07-25T05:22:44.911Z,13.00
2018-07-25T05:27:49.171Z,12.60
2018-07-25T05:32:53.243Z,12.60
2018-07-25T05:37:57.302Z,13.03
2018-07-25T05:43:01.387Z,12.17
2018-07-25T05:48:05.259Z,11.83
2018-07-25T05:53:09.318Z,11.27
2018-07-25T05:58:13.128Z,11.30
2018-07-25T06:03:16.978Z,12.13
2018-07-25T06:08:20.776Z,10.57
2018-07-25T06:13:24.653Z,13.30
2018-07-25T06:18:28.763Z,12.67
2018-07-25T06:23:32.642Z,16.07
2018-07-25T06:28:36.718Z,12.80
2018-07-25T06:33:40.560Z,12.68
2018-07-25T06:38:44.819Z,13.37
2018-07-25T06:43:48.635Z,12.85
2018-07-25T06:48:52.753Z,14.23
2018-07-25T06:53:56.830Z,28.47
2018-07-25T06:59:00.881Z,15.70
2018-07-25T07:04:04.954Z,13.60
2018-07-25T07:09:10.424Z,14.07
2018-07-25T07:14:14.254Z,15.30
2018-07-25T07:19:18.306Z,14.70
2018-07-25T07:24:22.219Z,17.87
2018-07-25T07:29:26.265Z,21.15
2018-07-25T07:34:30.326Z,18.90
2018-07-25T07:39:34.379Z,19.17
2018-07-25T07:44:38.442Z,19.05
2018-07-25T07:49:42.504Z,19.65
2018-07-25T07:54:46.330Z,20.50
2018-07-25T07:59:50.422Z,19.37
2018-07-25T08:04:54.299Z,17.92
2018-07-25T08:09:58.385Z,19.60
2018-07-25T08:15:04.571Z,22.37
2018-07-25T08:20:08.381Z,21.57
2018-07-25T08:25:12.439Z,18.62
2018-07-25T08:30:16.497Z,19.87
2018-07-25T08:35:20.342Z,19.65
2018-07-25T08:40:24.417Z,26.77
2018-07-25T08:45:28.246Z,19.17
2018-07-25T08:50:32.067Z,18.95
2018-07-25T08:55:36.115Z,19.87
2018-07-25T09:00:40.018Z,19.52
2018-07-25T09:05:43.852Z,16.07
2018-07-25T09:10:47.994Z,19.57
2018-07-25T09:15:51.814Z,23.40
2018-07-25T09:20:55.870Z,21.15
2018-07-25T09:25:59.684Z,19.42
2018-07-25T09:31:03.742Z,14.95
2018-07-25T09:36:07.571Z,17.37
2018-07-25T09:41:11.635Z,18.95
2018-07-25T09:46:15.698Z,18.00
2018-07-25T09:51:19.776Z,16.65
2018-07-25T09:56:23.581Z,19.00
2018-07-25T10:01:27.397Z,14.90
2018-07-25T10:06:31.446Z,14.45
2018-07-25T10:11:35.286Z,20.23
2018-07-25T10:16:39.402Z,12.28
2018-07-25T10:21:43.432Z,15.85
2018-07-25T10:26:47.447Z,19.75
2018-07-25T10:31:51.506Z,13.68
2018-07-25T10:36:55.326Z,11.15
2018-07-25T10:41:59.374Z,11.20
2018-07-25T10:47:03.178Z,10.85
2018-07-25T10:52:07.290Z,12.75
2018-07-25T10:57:11.353Z,12.45
2018-07-25T11:02:15.504Z,8.80
2018-07-25T11:07:19.518Z,8.35
2018-07-25T11:12:23.595Z,9.78
2018-07-25T11:17:27.649Z,9.33
2018-07-25T11:22:31.711Z,8.65
2018-07-25T11:27:35.759Z,7.67
2018-07-25T11:32:39.639Z,7.72
2018-07-25T11:37:43.625Z,7.85
2018-07-25T11:42:47.675Z,7.00
2018-07-25T11:47:51.727Z,9.35
2018-07-25T11:52:56.178Z,7.12
2018-07-25T11:58:00.237Z,9.33
2018-07-25T12:03:04.050Z,9.98
2018-07-25T12:08:08.101Z,10.05
2018-07-25T12:13:15.086Z,9.35
2018-07-25T12:18:18.902Z,7.80
2018-07-25T12:23:22.703Z,6.72
2018-07-25T12:28:26.513Z,5.72
2018-07-25T12:33:30.572Z,6.40
2018-07-25T12:38:34.374Z,6.30
2018-07-25T12:43:38.418Z,7.62
2018-07-25T12:48:42.476Z,7.70
2018-07-25T12:53:46.607Z,6.40
2018-07-25T12:58:50.590Z,7.62
2018-07-25T13:03:54.639Z,6.30
2018-07-25T13:08:58.683Z,6.62
2018-07-25T13:14:02.816Z,6.05
2018-07-25T13:19:06.934Z,7.47
2018-07-25T13:24:10.981Z,6.25
2018-07-25T13:29:14.907Z,7.55
2018-07-25T13:34:18.962Z,6.37
2018-07-25T13:39:22.810Z,5.60
2018-07-25T13:44:26.865Z,6.47
2018-07-25T13:49:30.934Z,7.53
2018-07-25T13:54:34.991Z,6.08
2018-07-25T13:59:39.083Z,5.47
2018-07-25T14:04:42.852Z,4.90
2018-07-25T14:09:46.666Z,5.47
2018-07-25T14:14:50.756Z,5.45
2018-07-25T14:19:54.826Z,4.87
2018-07-25T14:24:58.875Z,4.40
2018-07-25T14:30:02.986Z,4.55
2018-07-25T14:35:07.008Z,4.10
2018-07-25T14:40:10.915Z,4.08
2018-07-25T14:45:14.887Z,4.10
2018-07-25T14:50:19.127Z,3.50
2018-07-25T14:55:22.928Z,3.33
2018-07-25T15:00:27.101Z,3.40
2018-07-25T15:05:31.177Z,4.37
2018-07-25T15:10:35.280Z,3.75
2018-07-25T15:15:39.380Z,6.00
2018-07-25T15:20:43.447Z,4.72
2018-07-25T15:25:47.590Z,5.53
2018-07-25T15:30:51.434Z,5.42
2018-07-25T15:35:55.257Z,4.10
2018-07-25T15:40:59.342Z,5.92
2018-07-25T15:46:03.401Z,4.17
2018-07-25T15:51:07.915Z,4.30
2018-07-25T15:56:11.995Z,5.95
2018-07-25T16:01:15.815Z,4.73
2018-07-25T16:06:19.947Z,5.42
2018-07-25T16:11:24.354Z,6.30
2018-07-25T16:16:28.194Z,4.03
2018-07-25T16:21:32.246Z,3.70
2018-07-25T16:26:36.061Z,4.10
2018-07-25T16:31:40.124Z,4.00
2018-07-25T16:36:44.167Z,4.33
2018-07-25T16:41:48.215Z,4.03
2018-07-25T16:46:52.361Z,6.37
2018-07-25T16:51:56.430Z,4.50
2018-07-25T16:57:00.249Z,4.30
2018-07-25T17:02:04.317Z,5.60
2018-07-25T17:07:08.170Z,4.80
2018-07-25T17:12:12.249Z,4.62
2018-07-25T17:17:16.479Z,4.75
2018-07-25T17:22:21.379Z,4.47
2018-07-25T17:27:25.472Z,4.85
2018-07-25T17:32:29.449Z,4.37
2018-07-25T17:37:33.512Z,4.60
2018-07-25T17:42:37.594Z,4.95
2018-07-25T17:47:42.176Z,5.67
2018-07-25T17:52:46.330Z,5.35
2018-07-25T17:57:50.365Z,5.35
2018-07-25T18:02:54.208Z,7.25
2018-07-25T18:07:58.062Z,5.80
2018-07-25T18:13:07.548Z,5.95
2018-07-25T18:18:11.385Z,4.78
2018-07-25T18:23:15.493Z,5.35
2018-07-25T18:28:20.442Z,6.53
2018-07-25T18:33:24.552Z,5.78
2018-07-25T18:38:28.382Z,4.80
2018-07-25T18:43:32.190Z,5.08
2018-07-25T18:48:36.265Z,6.80
2018-07-25T18:53:40.093Z,5.08
2018-07-25T18:58:43.901Z,5.10
2018-07-25T19:03:47.712Z,5.45
2018-07-25T19:08:51.545Z,4.80
2018-07-25T19:14:00.872Z,4.85
2018-07-25T19:19:04.981Z,4.70
2018-07-25T19:24:09.141Z,5.03
2018-07-25T19:29:13.198Z,5.92
2018-07-25T19:34:17.260Z,5.15
2018-07-25T19:39:21.073Z,4.95
2018-07-25T19:44:26.154Z,4.80
2018-07-25T19:49:30.247Z,6.42
2018-07-25T19:54:34.126Z,5.53
2018-07-25T19:59:38.119Z,5.53
2018-07-25T20:04:42.170Z,6.03
2018-07-25T20:09:46.027Z,5.57
2018-07-25T20:14:55.284Z,5.30
2018-07-25T20:19:59.362Z,6.10
2018-07-25T20:25:03.421Z,5.53
2018-07-25T20:30:09.046Z,6.60
2018-07-25T20:35:13.123Z,6.80
2018-07-25T20:40:17.098Z,8.20
2018-07-25T20:45:21.180Z,7.40
2018-07-25T20:50:25.279Z,9.03
2018-07-25T20:55:29.335Z,7.43
2018-07-25T21:00:35.349Z,6.43
2018-07-25T21:05:39.545Z,6.53
2018-07-25T21:10:43.366Z,6.17
2018-07-25T21:15:47.454Z,6.93
2018-07-25T21:20:51.532Z,6.47
2018-07-25T21:25:55.602Z,6.23
2018-07-25T21:30:59.687Z,7.00
2018-07-25T21:36:03.727Z,6.30
2018-07-25T21:41:07.792Z,6.50
2018-07-25T21:46:11.847Z,7.10
2018-07-25T21:51:15.932Z,7.37
2018-07-25T21:56:19.979Z,7.30
2018-07-25T22:01:23.878Z,6.93
2018-07-25T22:06:27.928Z,7.05
2018-07-25T22:11:31.989Z,6.23
2018-07-25T22:16:36.063Z,7.00
2018-07-25T22:21:40.140Z,6.73
2018-07-25T22:26:44.227Z,7.80
2018-07-25T22:31:48.279Z,7.33
2018-07-25T22:36:52.827Z,7.00
2018-07-25T22:41:56.643Z,6.93
2018-07-25T22:47:00.722Z,7.70
2018-07-25T22:52:04.777Z,7.23
2018-07-25T22:57:08.642Z,7.23
2018-07-25T23:02:12.788Z,7.53
2018-07-25T23:07:16.610Z,7.23
2018-07-25T23:12:20.427Z,8.03
2018-07-25T23:17:24.328Z,7.40
2018-07-25T23:22:28.146Z,7.53
2018-07-25T23:27:31.954Z,7.57
2018-07-25T23:32:36.013Z,8.03
2018-07-25T23:37:39.851Z,8.07
2018-07-25T23:42:43.669Z,7.63
2018-07-25T23:47:47.753Z,7.53
2018-07-25T23:52:51.565Z,8.10
2018-07-25T23:57:55.606Z,8.63
